sensor_id;sensor_type;location;lat;lon;timestamp;P1;durP1;ratioP1;P2;durP2;ratioP2
10904;SDS011;5505;51.450;9.254;2023-12-14T00:00:55;14.73;;;11.27;;
10904;SDS011;5505;51.450;9.254;2023-12-14T00:03:41;17.00;;;11.57;;
10904;SDS011;5505;51.450;9.254;2023-12-14T00:06:29;12.57;;;11.03;;
10904;SDS011;5505;51.450;9.254;2023-12-14T00:09:17;14.80;;;10.70;;
10904;SDS011;5505;51.450;9.254;2023-12-14T00:12:04;15.27;;;11.40;;
10904;SDS011;5505;51.450;9.254;2023-12-14T00:14:51;16.60;;;11.43;;
10904;SDS011;5505;51.450;9.254;2023-12-14T00:17:38;14.87;;;11.30;;
10904;SDS011;5505;51.450;9.254;2023-12-14T00:20:25;18.43;;;11.93;;
10904;SDS011;5505;51.450;9.254;2023-12-14T00:23:11;17.40;;;12.50;;
10904;SDS011;5505;51.450;9.254;2023-12-14T00:26:00;14.47;;;11.10;;
10904;SDS011;5505;51.450;9.254;2023-12-14T00:28:47;15.43;;;10.57;;
10904;SDS011;5505;51.450;9.254;2023-12-14T00:31:34;15.57;;;10.87;;
10904;SDS011;5505;51.450;9.254;2023-12-14T00:34:23;12.30;;;10.20;;
10904;SDS011;5505;51.450;9.254;2023-12-14T00:37:09;13.27;;;10.13;;
10904;SDS011;5505;51.450;9.254;2023-12-14T00:39:56;13.40;;;10.30;;
10904;SDS011;5505;51.450;9.254;2023-12-14T00:42:44;13.70;;;10.90;;
10904;SDS011;5505;51.450;9.254;2023-12-14T00:45:31;13.87;;;11.77;;
10904;SDS011;5505;51.450;9.254;2023-12-14T00:48:18;15.37;;;12.30;;
10904;SDS011;5505;51.450;9.254;2023-12-14T00:51:05;15.53;;;12.43;;
10904;SDS011;5505;51.450;9.254;2023-12-14T00:53:52;16.57;;;11.97;;
10904;SDS011;5505;51.450;9.254;2023-12-14T00:56:39;17.20;;;11.77;;
10904;SDS011;5505;51.450;9.254;2023-12-14T00:59:28;14.20;;;11.33;;
10904;SDS011;5505;51.450;9.254;2023-12-14T01:02:15;15.20;;;11.37;;
10904;SDS011;5505;51.450;9.254;2023-12-14T01:05:02;12.70;;;10.23;;
10904;SDS011;5505;51.450;9.254;2023-12-14T01:07:49;12.80;;;10.40;;
10904;SDS011;5505;51.450;9.254;2023-12-14T01:10:36;12.47;;;8.83;;
10904;SDS011;5505;51.450;9.254;2023-12-14T01:13:23;10.70;;;8.83;;
10904;SDS011;5505;51.450;9.254;2023-12-14T01:16:11;11.93;;;8.47;;
10904;SDS011;5505;51.450;9.254;2023-12-14T01:18:58;9.63;;;8.63;;
10904;SDS011;5505;51.450;9.254;2023-12-14T01:21:45;9.80;;;8.80;;
10904;SDS011;5505;51.450;9.254;2023-12-14T01:24:32;10.17;;;9.03;;
10904;SDS011;5505;51.450;9.254;2023-12-14T01:27:19;10.40;;;8.80;;
10904;SDS011;5505;51.450;9.254;2023-12-14T01:30:06;11.43;;;9.73;;
10904;SDS011;5505;51.450;9.254;2023-12-14T01:32:55;11.20;;;9.80;;
10904;SDS011;5505;51.450;9.254;2023-12-14T01:35:42;11.83;;;9.43;;
10904;SDS011;5505;51.450;9.254;2023-12-14T01:38:28;9.33;;;8.33;;
10904;SDS011;5505;51.450;9.254;2023-12-14T01:41:15;8.87;;;7.97;;
10904;SDS011;5505;51.450;9.254;2023-12-14T01:44:03;9.17;;;8.27;;
10904;SDS011;5505;51.450;9.254;2023-12-14T01:46:50;9.83;;;8.50;;
10904;SDS011;5505;51.450;9.254;2023-12-14T01:49:38;7.67;;;6.87;;
10904;SDS011;5505;51.450;9.254;2023-12-14T01:52:26;7.63;;;6.90;;
10904;SDS011;5505;51.450;9.254;2023-12-14T01:55:13;7.50;;;6.80;;
10904;SDS011;5505;51.450;9.254;2023-12-14T01:58:00;6.40;;;5.80;;
10904;SDS011;5505;51.450;9.254;2023-12-14T02:00:49;6.50;;;5.90;;
10904;SDS011;5505;51.450;9.254;2023-12-14T02:03:43;5.60;;;5.10;;
10904;SDS011;5505;51.450;9.254;2023-12-14T02:06:32;5.93;;;5.43;;
10904;SDS011;5505;51.450;9.254;2023-12-14T02:09:19;6.47;;;5.87;;
10904;SDS011;5505;51.450;9.254;2023-12-14T02:12:06;6.37;;;5.77;;
10904;SDS011;5505;51.450;9.254;2023-12-14T02:14:53;6.00;;;5.50;;
10904;SDS011;5505;51.450;9.254;2023-12-14T02:17:42;6.67;;;6.07;;
10904;SDS011;5505;51.450;9.254;2023-12-14T02:20:29;6.87;;;6.17;;
10904;SDS011;5505;51.450;9.254;2023-12-14T02:23:17;6.73;;;6.13;;
10904;SDS011;5505;51.450;9.254;2023-12-14T02:26:04;6.80;;;6.20;;
10904;SDS011;5505;51.450;9.254;2023-12-14T02:28:51;7.20;;;6.60;;
10904;SDS011;5505;51.450;9.254;2023-12-14T02:31:38;6.93;;;6.33;;
10904;SDS011;5505;51.450;9.254;2023-12-14T02:34:25;7.10;;;6.50;;
10904;SDS011;5505;51.450;9.254;2023-12-14T02:37:11;6.30;;;5.77;;
10904;SDS011;5505;51.450;9.254;2023-12-14T02:40:00;6.47;;;5.97;;
10904;SDS011;5505;51.450;9.254;2023-12-14T02:42:47;7.30;;;6.60;;
10904;SDS011;5505;51.450;9.254;2023-12-14T02:45:34;6.70;;;6.10;;
10904;SDS011;5505;51.450;9.254;2023-12-14T02:48:20;6.97;;;6.27;;
10904;SDS011;5505;51.450;9.254;2023-12-14T02:51:08;6.83;;;6.23;;
10904;SDS011;5505;51.450;9.254;2023-12-14T02:53:58;6.67;;;6.00;;
10904;SDS011;5505;51.450;9.254;2023-12-14T02:56:47;6.73;;;6.13;;
10904;SDS011;5505;51.450;9.254;2023-12-14T02:59:33;7.90;;;7.10;;
10904;SDS011;5505;51.450;9.254;2023-12-14T03:02:20;7.33;;;6.63;;
10904;SDS011;5505;51.450;9.254;2023-12-14T03:05:07;6.97;;;6.37;;
10904;SDS011;5505;51.450;9.254;2023-12-14T03:07:54;7.10;;;6.50;;
10904;SDS011;5505;51.450;9.254;2023-12-14T03:10:41;7.47;;;6.77;;
10904;SDS011;5505;51.450;9.254;2023-12-14T03:13:29;6.80;;;5.93;;
10904;SDS011;5505;51.450;9.254;2023-12-14T03:16:16;6.80;;;6.20;;
10904;SDS011;5505;51.450;9.254;2023-12-14T03:19:03;7.17;;;6.57;;
10904;SDS011;5505;51.450;9.254;2023-12-14T03:21:50;6.93;;;6.33;;
10904;SDS011;5505;51.450;9.254;2023-12-14T03:24:37;7.33;;;6.63;;
10904;SDS011;5505;51.450;9.254;2023-12-14T03:27:24;7.20;;;6.50;;
10904;SDS011;5505;51.450;9.254;2023-12-14T03:30:12;7.60;;;6.90;;
10904;SDS011;5505;51.450;9.254;2023-12-14T03:32:59;7.70;;;7.00;;
10904;SDS011;5505;51.450;9.254;2023-12-14T03:35:46;8.43;;;7.63;;
10904;SDS011;5505;51.450;9.254;2023-12-14T03:38:33;8.20;;;7.40;;
10904;SDS011;5505;51.450;9.254;2023-12-14T03:41:20;8.63;;;7.83;;
10904;SDS011;5505;51.450;9.254;2023-12-14T03:44:06;8.37;;;7.63;;
10904;SDS011;5505;51.450;9.254;2023-12-14T03:46:55;9.40;;;8.50;;
10904;SDS011;5505;51.450;9.254;2023-12-14T03:49:43;9.13;;;8.23;;
10904;SDS011;5505;51.450;9.254;2023-12-14T03:52:29;7.70;;;7.00;;
10904;SDS011;5505;51.450;9.254;2023-12-14T03:55:17;8.13;;;7.33;;
10904;SDS011;5505;51.450;9.254;2023-12-14T03:58:04;7.23;;;6.53;;
10904;SDS011;5505;51.450;9.254;2023-12-14T04:00:50;7.47;;;6.73;;
10904;SDS011;5505;51.450;9.254;2023-12-14T04:03:39;7.07;;;6.37;;
10904;SDS011;5505;51.450;9.254;2023-12-14T04:06:26;7.23;;;6.53;;
10904;SDS011;5505;51.450;9.254;2023-12-14T04:09:13;9.60;;;7.50;;
10904;SDS011;5505;51.450;9.254;2023-12-14T04:12:00;9.40;;;8.03;;
10904;SDS011;5505;51.450;9.254;2023-12-14T04:14:47;7.20;;;6.50;;
10904;SDS011;5505;51.450;9.254;2023-12-14T04:17:34;8.07;;;7.27;;
10904;SDS011;5505;51.450;9.254;2023-12-14T04:20:23;8.90;;;7.90;;
10904;SDS011;5505;51.450;9.254;2023-12-14T04:23:10;8.47;;;7.53;;
10904;SDS011;5505;51.450;9.254;2023-12-14T04:25:57;8.53;;;7.63;;
10904;SDS011;5505;51.450;9.254;2023-12-14T04:28:43;9.97;;;7.80;;
10904;SDS011;5505;51.450;9.254;2023-12-14T04:31:31;9.43;;;7.87;;
10904;SDS011;5505;51.450;9.254;2023-12-14T04:34:18;10.23;;;8.63;;
10904;SDS011;5505;51.450;9.254;2023-12-14T04:37:06;9.90;;;8.90;;
10904;SDS011;5505;51.450;9.254;2023-12-14T04:39:53;9.53;;;7.97;;
10904;SDS011;5505;51.450;9.254;2023-12-14T04:42:39;9.13;;;7.63;;
10904;SDS011;5505;51.450;9.254;2023-12-14T04:45:26;8.20;;;7.33;;
10904;SDS011;5505;51.450;9.254;2023-12-14T04:48:13;8.53;;;7.30;;
10904;SDS011;5505;51.450;9.254;2023-12-14T04:51:00;8.07;;;7.07;;
10904;SDS011;5505;51.450;9.254;2023-12-14T04:53:48;8.47;;;7.03;;
10904;SDS011;5505;51.450;9.254;2023-12-14T04:56:35;8.53;;;7.50;;
10904;SDS011;5505;51.450;9.254;2023-12-14T04:59:22;7.73;;;6.93;;
10904;SDS011;5505;51.450;9.254;2023-12-14T05:02:09;7.03;;;6.30;;
10904;SDS011;5505;51.450;9.254;2023-12-14T05:04:55;7.63;;;6.83;;
10904;SDS011;5505;51.450;9.254;2023-12-14T05:07:42;7.40;;;6.23;;
10904;SDS011;5505;51.450;9.254;2023-12-14T05:10:30;7.50;;;6.80;;
10904;SDS011;5505;51.450;9.254;2023-12-14T05:13:17;7.20;;;6.50;;
10904;SDS011;5505;51.450;9.254;2023-12-14T05:16:04;6.40;;;5.43;;
10904;SDS011;5505;51.450;9.254;2023-12-14T05:18:51;5.03;;;4.53;;
10904;SDS011;5505;51.450;9.254;2023-12-14T05:21:39;5.67;;;4.57;;
10904;SDS011;5505;51.450;9.254;2023-12-14T05:24:25;6.10;;;4.63;;
10904;SDS011;5505;51.450;9.254;2023-12-14T05:27:14;4.23;;;3.83;;
10904;SDS011;5505;51.450;9.254;2023-12-14T05:30:00;4.30;;;3.83;;
10904;SDS011;5505;51.450;9.254;2023-12-14T05:32:48;4.10;;;3.80;;
10904;SDS011;5505;51.450;9.254;2023-12-14T05:35:34;4.43;;;3.90;;
10904;SDS011;5505;51.450;9.254;2023-12-14T05:38:21;4.60;;;3.53;;
10904;SDS011;5505;51.450;9.254;2023-12-14T05:41:09;4.10;;;3.70;;
10904;SDS011;5505;51.450;9.254;2023-12-14T05:43:57;4.13;;;3.60;;
10904;SDS011;5505;51.450;9.254;2023-12-14T05:46:44;4.40;;;3.70;;
10904;SDS011;5505;51.450;9.254;2023-12-14T05:49:31;6.20;;;4.40;;
10904;SDS011;5505;51.450;9.254;2023-12-14T05:52:18;4.27;;;3.87;;
10904;SDS011;5505;51.450;9.254;2023-12-14T05:55:06;3.90;;;3.60;;
10904;SDS011;5505;51.450;9.254;2023-12-14T05:57:55;4.30;;;3.90;;
10904;SDS011;5505;51.450;9.254;2023-12-14T06:00:43;5.57;;;5.07;;
10904;SDS011;5505;51.450;9.254;2023-12-14T06:03:30;4.30;;;3.57;;
10904;SDS011;5505;51.450;9.254;2023-12-14T06:06:17;4.17;;;3.77;;
10904;SDS011;5505;51.450;9.254;2023-12-14T06:09:04;4.07;;;3.67;;
10904;SDS011;5505;51.450;9.254;2023-12-14T06:11:52;4.00;;;3.60;;
10904;SDS011;5505;51.450;9.254;2023-12-14T06:14:39;4.10;;;3.53;;
10904;SDS011;5505;51.450;9.254;2023-12-14T06:17:27;4.17;;;3.77;;
10904;SDS011;5505;51.450;9.254;2023-12-14T06:20:14;3.50;;;3.20;;
10904;SDS011;5505;51.450;9.254;2023-12-14T06:23:01;4.37;;;3.93;;
10904;SDS011;5505;51.450;9.254;2023-12-14T06:25:48;4.10;;;3.73;;
10904;SDS011;5505;51.450;9.254;2023-12-14T06:28:35;4.53;;;4.10;;
10904;SDS011;5505;51.450;9.254;2023-12-14T06:31:22;4.43;;;3.53;;
10904;SDS011;5505;51.450;9.254;2023-12-14T06:34:10;3.90;;;3.57;;
10904;SDS011;5505;51.450;9.254;2023-12-14T06:36:56;5.20;;;4.70;;
10904;SDS011;5505;51.450;9.254;2023-12-14T06:39:45;9.47;;;7.67;;
10904;SDS011;5505;51.450;9.254;2023-12-14T06:42:32;6.23;;;5.63;;
10904;SDS011;5505;51.450;9.254;2023-12-14T06:45:19;5.47;;;4.97;;
10904;SDS011;5505;51.450;9.254;2023-12-14T06:48:06;6.60;;;6.00;;
10904;SDS011;5505;51.450;9.254;2023-12-14T06:50:54;7.53;;;6.73;;
10904;SDS011;5505;51.450;9.254;2023-12-14T06:53:41;7.47;;;6.47;;
10904;SDS011;5505;51.450;9.254;2023-12-14T06:56:28;7.83;;;7.03;;
10904;SDS011;5505;51.450;9.254;2023-12-14T06:59:15;19.17;;;7.90;;
10904;SDS011;5505;51.450;9.254;2023-12-14T07:02:02;11.30;;;7.40;;
10904;SDS011;5505;51.450;9.254;2023-12-14T07:04:49;9.53;;;7.17;;
10904;SDS011;5505;51.450;9.254;2023-12-14T07:07:37;15.63;;;7.73;;
10904;SDS011;5505;51.450;9.254;2023-12-14T07:10:24;10.27;;;7.67;;
10904;SDS011;5505;51.450;9.254;2023-12-14T07:13:11;9.27;;;8.13;;
10904;SDS011;5505;51.450;9.254;2023-12-14T07:15:58;8.60;;;7.70;;
10904;SDS011;5505;51.450;9.254;2023-12-14T07:18:45;8.83;;;7.47;;
10904;SDS011;5505;51.450;9.254;2023-12-14T07:21:32;10.40;;;7.47;;
10904;SDS011;5505;51.450;9.254;2023-12-14T07:24:20;9.53;;;8.00;;
10904;SDS011;5505;51.450;9.254;2023-12-14T07:27:07;9.30;;;8.00;;
10904;SDS011;5505;51.450;9.254;2023-12-14T07:29:54;8.83;;;7.80;;
10904;SDS011;5505;51.450;9.254;2023-12-14T07:32:40;8.07;;;7.10;;
10904;SDS011;5505;51.450;9.254;2023-12-14T07:35:27;9.67;;;7.93;;
10904;SDS011;5505;51.450;9.254;2023-12-14T07:38:14;9.47;;;8.00;;
10904;SDS011;5505;51.450;9.254;2023-12-14T07:41:03;8.47;;;7.67;;
10904;SDS011;5505;51.450;9.254;2023-12-14T07:43:49;9.13;;;8.13;;
10904;SDS011;5505;51.450;9.254;2023-12-14T07:46:36;8.90;;;7.97;;
10904;SDS011;5505;51.450;9.254;2023-12-14T07:49:26;10.97;;;8.77;;
10904;SDS011;5505;51.450;9.254;2023-12-14T07:52:13;10.13;;;8.20;;
10904;SDS011;5505;51.450;9.254;2023-12-14T07:55:00;9.37;;;7.93;;
10904;SDS011;5505;51.450;9.254;2023-12-14T07:57:49;9.13;;;8.13;;
10904;SDS011;5505;51.450;9.254;2023-12-14T08:00:36;9.67;;;8.03;;
10904;SDS011;5505;51.450;9.254;2023-12-14T08:03:23;8.50;;;7.60;;
10904;SDS011;5505;51.450;9.254;2023-12-14T08:06:10;8.40;;;7.60;;
10904;SDS011;5505;51.450;9.254;2023-12-14T08:08:56;8.40;;;7.53;;
10904;SDS011;5505;51.450;9.254;2023-12-14T08:11:44;8.33;;;7.43;;
10904;SDS011;5505;51.450;9.254;2023-12-14T08:14:33;7.50;;;6.67;;
10904;SDS011;5505;51.450;9.254;2023-12-14T08:17:20;7.73;;;6.87;;
10904;SDS011;5505;51.450;9.254;2023-12-14T08:20:07;7.77;;;6.97;;
10904;SDS011;5505;51.450;9.254;2023-12-14T08:22:56;8.33;;;7.07;;
10904;SDS011;5505;51.450;9.254;2023-12-14T08:25:43;7.77;;;6.97;;
10904;SDS011;5505;51.450;9.254;2023-12-14T08:28:30;7.53;;;6.80;;
10904;SDS011;5505;51.450;9.254;2023-12-14T08:31:18;7.77;;;7.00;;
10904;SDS011;5505;51.450;9.254;2023-12-14T08:34:05;8.03;;;6.63;;
10904;SDS011;5505;51.450;9.254;2023-12-14T08:36:52;7.80;;;7.10;;
10904;SDS011;5505;51.450;9.254;2023-12-14T08:39:39;7.30;;;6.60;;
10904;SDS011;5505;51.450;9.254;2023-12-14T08:42:27;6.57;;;5.97;;
10904;SDS011;5505;51.450;9.254;2023-12-14T08:45:14;7.00;;;6.30;;
10904;SDS011;5505;51.450;9.254;2023-12-14T08:48:02;7.23;;;6.33;;
10904;SDS011;5505;51.450;9.254;2023-12-14T08:50:50;7.60;;;6.83;;
10904;SDS011;5505;51.450;9.254;2023-12-14T08:53:39;7.37;;;6.27;;
10904;SDS011;5505;51.450;9.254;2023-12-14T08:56:26;7.90;;;6.47;;
10904;SDS011;5505;51.450;9.254;2023-12-14T08:59:13;8.43;;;7.53;;
10904;SDS011;5505;51.450;9.254;2023-12-14T09:02:00;7.77;;;6.97;;
10904;SDS011;5505;51.450;9.254;2023-12-14T09:04:48;8.77;;;7.87;;
10904;SDS011;5505;51.450;9.254;2023-12-14T09:07:36;9.23;;;8.33;;
10904;SDS011;5505;51.450;9.254;2023-12-14T09:10:23;10.07;;;8.47;;
10904;SDS011;5505;51.450;9.254;2023-12-14T09:13:10;9.97;;;8.87;;
10904;SDS011;5505;51.450;9.254;2023-12-14T09:15:57;10.83;;;9.67;;
10904;SDS011;5505;51.450;9.254;2023-12-14T09:18:44;10.27;;;9.17;;
10904;SDS011;5505;51.450;9.254;2023-12-14T09:21:32;13.13;;;8.77;;
10904;SDS011;5505;51.450;9.254;2023-12-14T09:24:19;10.63;;;9.47;;
10904;SDS011;5505;51.450;9.254;2023-12-14T09:27:06;11.97;;;9.90;;
10904;SDS011;5505;51.450;9.254;2023-12-14T09:29:52;12.37;;;10.10;;
10904;SDS011;5505;51.450;9.254;2023-12-14T09:32:39;12.40;;;11.00;;
10904;SDS011;5505;51.450;9.254;2023-12-14T09:35:26;11.30;;;10.00;;
10904;SDS011;5505;51.450;9.254;2023-12-14T09:38:14;12.63;;;11.07;;
10904;SDS011;5505;51.450;9.254;2023-12-14T09:41:04;12.17;;;10.87;;
10904;SDS011;5505;51.450;9.254;2023-12-14T09:43:52;11.73;;;10.20;;
10904;SDS011;5505;51.450;9.254;2023-12-14T09:46:39;11.77;;;10.57;;
10904;SDS011;5505;51.450;9.254;2023-12-14T09:49:34;11.93;;;10.50;;
10904;SDS011;5505;51.450;9.254;2023-12-14T09:52:23;12.43;;;10.70;;
10904;SDS011;5505;51.450;9.254;2023-12-14T09:55:11;12.50;;;10.93;;
10904;SDS011;5505;51.450;9.254;2023-12-14T09:57:58;13.73;;;11.37;;
10904;SDS011;5505;51.450;9.254;2023-12-14T10:00:47;14.43;;;10.73;;
10904;SDS011;5505;51.450;9.254;2023-12-14T10:03:34;12.50;;;10.07;;
10904;SDS011;5505;51.450;9.254;2023-12-14T10:06:21;13.63;;;11.77;;
10904;SDS011;5505;51.450;9.254;2023-12-14T10:09:09;11.27;;;10.07;;
10904;SDS011;5505;51.450;9.254;2023-12-14T10:12:03;11.73;;;10.00;;
10904;SDS011;5505;51.450;9.254;2023-12-14T10:14:59;11.87;;;10.13;;
10904;SDS011;5505;51.450;9.254;2023-12-14T10:17:47;11.77;;;10.27;;
10904;SDS011;5505;51.450;9.254;2023-12-14T10:20:39;12.93;;;10.33;;
10904;SDS011;5505;51.450;9.254;2023-12-14T10:23:26;13.27;;;11.23;;
10904;SDS011;5505;51.450;9.254;2023-12-14T10:26:14;11.00;;;9.80;;
10904;SDS011;5505;51.450;9.254;2023-12-14T10:29:02;11.10;;;10.00;;
10904;SDS011;5505;51.450;9.254;2023-12-14T10:31:50;12.80;;;11.53;;
10904;SDS011;5505;51.450;9.254;2023-12-14T10:34:38;11.27;;;10.17;;
10904;SDS011;5505;51.450;9.254;2023-12-14T10:37:26;12.67;;;11.30;;
10904;SDS011;5505;51.450;9.254;2023-12-14T10:40:13;14.27;;;11.70;;
10904;SDS011;5505;51.450;9.254;2023-12-14T10:43:00;13.23;;;10.97;;
10904;SDS011;5505;51.450;9.254;2023-12-14T10:45:50;12.63;;;11.33;;
10904;SDS011;5505;51.450;9.254;2023-12-14T10:48:39;13.57;;;12.27;;
10904;SDS011;5505;51.450;9.254;2023-12-14T10:51:27;12.40;;;11.20;;
10904;SDS011;5505;51.450;9.254;2023-12-14T10:54:15;11.50;;;10.30;;
10904;SDS011;5505;51.450;9.254;2023-12-14T10:57:04;11.90;;;10.80;;
10904;SDS011;5505;51.450;9.254;2023-12-14T10:59:57;11.60;;;10.40;;
10904;SDS011;5505;51.450;9.254;2023-12-14T11:02:46;10.50;;;9.50;;
10904;SDS011;5505;51.450;9.254;2023-12-14T11:05:34;11.87;;;10.73;;
10904;SDS011;5505;51.450;9.254;2023-12-14T11:08:21;12.57;;;11.27;;
10904;SDS011;5505;51.450;9.254;2023-12-14T11:11:08;12.97;;;11.57;;
10904;SDS011;5505;51.450;9.254;2023-12-14T11:13:58;10.53;;;9.53;;
10904;SDS011;5505;51.450;9.254;2023-12-14T11:16:45;11.87;;;10.73;;
10904;SDS011;5505;51.450;9.254;2023-12-14T11:19:35;10.77;;;9.67;;
10904;SDS011;5505;51.450;9.254;2023-12-14T11:22:23;9.37;;;8.47;;
10904;SDS011;5505;51.450;9.254;2023-12-14T11:25:12;9.00;;;8.10;;
10904;SDS011;5505;51.450;9.254;2023-12-14T11:28:02;10.50;;;9.33;;
10904;SDS011;5505;51.450;9.254;2023-12-14T11:30:49;10.67;;;9.37;;
10904;SDS011;5505;51.450;9.254;2023-12-14T11:33:36;9.83;;;8.83;;
10904;SDS011;5505;51.450;9.254;2023-12-14T11:36:25;11.20;;;8.70;;
10904;SDS011;5505;51.450;9.254;2023-12-14T11:39:12;10.77;;;9.60;;
10904;SDS011;5505;51.450;9.254;2023-12-14T11:42:00;8.83;;;8.03;;
10904;SDS011;5505;51.450;9.254;2023-12-14T11:44:47;10.00;;;8.90;;
10904;SDS011;5505;51.450;9.254;2023-12-14T11:47:34;12.50;;;8.90;;
10904;SDS011;5505;51.450;9.254;2023-12-14T11:50:21;10.07;;;8.83;;
10904;SDS011;5505;51.450;9.254;2023-12-14T11:53:09;11.37;;;9.77;;
10904;SDS011;5505;51.450;9.254;2023-12-14T11:55:57;10.57;;;9.57;;
10904;SDS011;5505;51.450;9.254;2023-12-14T11:58:48;11.87;;;10.53;;
10904;SDS011;5505;51.450;9.254;2023-12-14T12:01:35;11.70;;;10.33;;
10904;SDS011;5505;51.450;9.254;2023-12-14T12:04:22;13.93;;;12.03;;
10904;SDS011;5505;51.450;9.254;2023-12-14T12:07:10;13.60;;;11.60;;
10904;SDS011;5505;51.450;9.254;2023-12-14T12:09:59;14.23;;;12.07;;
10904;SDS011;5505;51.450;9.254;2023-12-14T12:12:46;14.20;;;10.87;;
10904;SDS011;5505;51.450;9.254;2023-12-14T12:15:32;13.20;;;11.17;;
10904;SDS011;5505;51.450;9.254;2023-12-14T12:18:21;12.57;;;11.27;;
10904;SDS011;5505;51.450;9.254;2023-12-14T12:21:07;12.50;;;11.07;;
10904;SDS011;5505;51.450;9.254;2023-12-14T12:23:54;13.43;;;10.73;;
10904;SDS011;5505;51.450;9.254;2023-12-14T12:26:42;13.50;;;11.13;;
10904;SDS011;5505;51.450;9.254;2023-12-14T12:29:29;15.80;;;14.20;;
10904;SDS011;5505;51.450;9.254;2023-12-14T12:32:16;13.60;;;12.20;;
10904;SDS011;5505;51.450;9.254;2023-12-14T12:35:04;13.80;;;12.07;;
10904;SDS011;5505;51.450;9.254;2023-12-14T12:37:51;13.23;;;11.83;;
10904;SDS011;5505;51.450;9.254;2023-12-14T12:40:39;16.10;;;13.07;;
10904;SDS011;5505;51.450;9.254;2023-12-14T12:43:27;15.80;;;13.73;;
10904;SDS011;5505;51.450;9.254;2023-12-14T12:46:14;14.77;;;12.27;;
10904;SDS011;5505;51.450;9.254;2023-12-14T12:49:01;13.50;;;11.93;;
10904;SDS011;5505;51.450;9.254;2023-12-14T12:51:49;15.10;;;11.50;;
10904;SDS011;5505;51.450;9.254;2023-12-14T12:54:36;13.93;;;11.83;;
10904;SDS011;5505;51.450;9.254;2023-12-14T12:57:23;13.03;;;11.10;;
10904;SDS011;5505;51.450;9.254;2023-12-14T13:00:11;15.67;;;14.00;;
10904;SDS011;5505;51.450;9.254;2023-12-14T13:02:59;14.60;;;12.50;;
10904;SDS011;5505;51.450;9.254;2023-12-14T13:05:47;13.50;;;10.97;;
10904;SDS011;5505;51.450;9.254;2023-12-14T13:08:34;13.27;;;11.50;;
10904;SDS011;5505;51.450;9.254;2023-12-14T13:11:21;13.23;;;11.67;;
10904;SDS011;5505;51.450;9.254;2023-12-14T13:14:08;14.67;;;11.70;;
10904;SDS011;5505;51.450;9.254;2023-12-14T13:16:56;13.70;;;11.20;;
10904;SDS011;5505;51.450;9.254;2023-12-14T13:19:44;15.83;;;12.00;;
10904;SDS011;5505;51.450;9.254;2023-12-14T13:22:31;14.90;;;11.30;;
10904;SDS011;5505;51.450;9.254;2023-12-14T13:25:18;12.27;;;10.43;;
10904;SDS011;5505;51.450;9.254;2023-12-14T13:28:07;12.67;;;10.00;;
10904;SDS011;5505;51.450;9.254;2023-12-14T13:30:54;13.50;;;10.27;;
10904;SDS011;5505;51.450;9.254;2023-12-14T13:33:42;13.87;;;11.40;;
10904;SDS011;5505;51.450;9.254;2023-12-14T13:36:29;11.97;;;10.73;;
10904;SDS011;5505;51.450;9.254;2023-12-14T13:39:16;12.40;;;11.10;;
10904;SDS011;5505;51.450;9.254;2023-12-14T13:42:03;12.80;;;11.13;;
10904;SDS011;5505;51.450;9.254;2023-12-14T13:44:51;11.50;;;10.27;;
10904;SDS011;5505;51.450;9.254;2023-12-14T13:47:38;12.10;;;10.73;;
10904;SDS011;5505;51.450;9.254;2023-12-14T13:50:26;16.17;;;11.37;;
10904;SDS011;5505;51.450;9.254;2023-12-14T13:53:13;13.67;;;10.90;;
10904;SDS011;5505;51.450;9.254;2023-12-14T13:55:59;11.53;;;10.33;;
10904;SDS011;5505;51.450;9.254;2023-12-14T13:58:46;11.97;;;10.40;;
10904;SDS011;5505;51.450;9.254;2023-12-14T14:01:33;10.90;;;9.80;;
10904;SDS011;5505;51.450;9.254;2023-12-14T14:04:20;11.40;;;9.97;;
10904;SDS011;5505;51.450;9.254;2023-12-14T14:07:08;10.90;;;9.80;;
10904;SDS011;5505;51.450;9.254;2023-12-14T14:09:55;10.53;;;8.83;;
10904;SDS011;5505;51.450;9.254;2023-12-14T14:12:43;10.67;;;9.57;;
10904;SDS011;5505;51.450;9.254;2023-12-14T14:15:30;10.50;;;9.30;;
10904;SDS011;5505;51.450;9.254;2023-12-14T14:18:16;10.37;;;9.37;;
10904;SDS011;5505;51.450;9.254;2023-12-14T14:21:04;11.20;;;10.00;;
10904;SDS011;5505;51.450;9.254;2023-12-14T14:23:54;11.60;;;9.90;;
10904;SDS011;5505;51.450;9.254;2023-12-14T14:26:40;10.60;;;9.60;;
10904;SDS011;5505;51.450;9.254;2023-12-14T14:29:27;11.27;;;10.07;;
10904;SDS011;5505;51.450;9.254;2023-12-14T14:32:14;11.80;;;10.70;;
10904;SDS011;5505;51.450;9.254;2023-12-14T14:35:01;11.63;;;10.30;;
10904;SDS011;5505;51.450;9.254;2023-12-14T14:37:48;11.17;;;10.07;;
10904;SDS011;5505;51.450;9.254;2023-12-14T14:40:36;11.63;;;10.53;;
10904;SDS011;5505;51.450;9.254;2023-12-14T14:43:23;13.17;;;11.10;;
10904;SDS011;5505;51.450;9.254;2023-12-14T14:46:10;12.20;;;10.97;;
10904;SDS011;5505;51.450;9.254;2023-12-14T14:48:57;11.87;;;10.70;;
10904;SDS011;5505;51.450;9.254;2023-12-14T14:51:48;12.13;;;10.93;;
10904;SDS011;5505;51.450;9.254;2023-12-14T14:54:35;11.80;;;10.67;;
10904;SDS011;5505;51.450;9.254;2023-12-14T14:57:23;11.53;;;9.83;;
10904;SDS011;5505;51.450;9.254;2023-12-14T15:00:10;11.50;;;10.30;;
10904;SDS011;5505;51.450;9.254;2023-12-14T15:03:00;12.10;;;10.80;;
10904;SDS011;5505;51.450;9.254;2023-12-14T15:05:46;11.13;;;10.07;;
10904;SDS011;5505;51.450;9.254;2023-12-14T15:08:33;12.00;;;10.80;;
10904;SDS011;5505;51.450;9.254;2023-12-14T15:11:20;12.33;;;11.13;;
10904;SDS011;5505;51.450;9.254;2023-12-14T15:14:08;11.73;;;10.53;;
10904;SDS011;5505;51.450;9.254;2023-12-14T15:16:55;11.30;;;10.20;;
10904;SDS011;5505;51.450;9.254;2023-12-14T15:19:42;13.63;;;11.53;;
10904;SDS011;5505;51.450;9.254;2023-12-14T15:22:31;11.70;;;10.60;;
10904;SDS011;5505;51.450;9.254;2023-12-14T15:25:18;12.33;;;11.13;;
10904;SDS011;5505;51.450;9.254;2023-12-14T15:28:05;12.93;;;11.57;;
10904;SDS011;5505;51.450;9.254;2023-12-14T15:30:53;12.07;;;10.87;;
10904;SDS011;5505;51.450;9.254;2023-12-14T15:33:40;11.33;;;10.23;;
10904;SDS011;5505;51.450;9.254;2023-12-14T15:36:27;11.90;;;10.70;;
10904;SDS011;5505;51.450;9.254;2023-12-14T15:39:15;11.93;;;10.73;;
10904;SDS011;5505;51.450;9.254;2023-12-14T15:42:02;12.00;;;10.80;;
10904;SDS011;5505;51.450;9.254;2023-12-14T15:44:49;12.80;;;11.50;;
10904;SDS011;5505;51.450;9.254;2023-12-14T15:47:37;11.17;;;10.00;;
10904;SDS011;5505;51.450;9.254;2023-12-14T15:50:24;12.00;;;10.57;;
10904;SDS011;5505;51.450;9.254;2023-12-14T15:53:11;12.60;;;11.30;;
10904;SDS011;5505;51.450;9.254;2023-12-14T15:55:58;11.53;;;10.33;;
10904;SDS011;5505;51.450;9.254;2023-12-14T15:58:45;11.80;;;10.60;;
10904;SDS011;5505;51.450;9.254;2023-12-14T16:01:32;12.27;;;11.07;;
10904;SDS011;5505;51.450;9.254;2023-12-14T16:04:23;12.30;;;11.00;;
10904;SDS011;5505;51.450;9.254;2023-12-14T16:07:10;12.47;;;11.20;;
10904;SDS011;5505;51.450;9.254;2023-12-14T16:09:56;11.70;;;10.50;;
10904;SDS011;5505;51.450;9.254;2023-12-14T16:12:43;12.37;;;11.10;;
10904;SDS011;5505;51.450;9.254;2023-12-14T16:15:30;13.33;;;11.93;;
10904;SDS011;5505;51.450;9.254;2023-12-14T16:18:17;13.33;;;11.33;;
10904;SDS011;5505;51.450;9.254;2023-12-14T16:21:06;22.87;;;15.20;;
10904;SDS011;5505;51.450;9.254;2023-12-14T16:23:54;15.00;;;12.50;;
10904;SDS011;5505;51.450;9.254;2023-12-14T16:26:41;26.97;;;16.07;;
10904;SDS011;5505;51.450;9.254;2023-12-14T16:29:30;18.60;;;12.57;;
10904;SDS011;5505;51.450;9.254;2023-12-14T16:32:21;13.10;;;10.60;;
10904;SDS011;5505;51.450;9.254;2023-12-14T16:35:09;17.80;;;15.20;;
10904;SDS011;5505;51.450;9.254;2023-12-14T16:38:00;13.63;;;11.57;;
10904;SDS011;5505;51.450;9.254;2023-12-14T16:40:47;15.40;;;13.77;;
10904;SDS011;5505;51.450;9.254;2023-12-14T16:43:36;12.27;;;10.97;;
10904;SDS011;5505;51.450;9.254;2023-12-14T16:46:23;11.60;;;10.43;;
10904;SDS011;5505;51.450;9.254;2023-12-14T16:49:10;12.00;;;9.93;;